sensor_id;sensor_type;location;lat;lon;timestamp;P1;durP1;ratioP1;P2;durP2;ratioP2
65275;SDS011;51875;49.994;14.052;2023-06-10T00:00:04;12.15;;;8.05;;
65275;SDS011;51875;49.994;14.052;2023-06-10T00:01:21;12.32;;;7.57;;
65275;SDS011;51875;49.994;14.052;2023-06-10T00:02:38;14.07;;;7.53;;
65275;SDS011;51875;49.994;14.052;2023-06-10T00:03:54;10.55;;;7.72;;
65275;SDS011;51875;49.994;14.052;2023-06-10T00:05:10;10.15;;;6.82;;
65275;SDS011;51875;49.994;14.052;2023-06-10T00:06:26;11.32;;;7.30;;
65275;SDS011;51875;49.994;14.052;2023-06-10T00:07:41;10.27;;;8.20;;
65275;SDS011;51875;49.994;14.052;2023-06-10T00:08:57;10.82;;;7.72;;
65275;SDS011;51875;49.994;14.052;2023-06-10T00:10:13;13.05;;;7.90;;
65275;SDS011;51875;49.994;14.052;2023-06-10T00:11:28;10.55;;;8.15;;
65275;SDS011;51875;49.994;14.052;2023-06-10T00:12:44;14.25;;;8.85;;
65275;SDS011;51875;49.994;14.052;2023-06-10T00:13:59;12.38;;;8.50;;
65275;SDS011;51875;49.994;14.052;2023-06-10T00:15:15;13.50;;;8.57;;
65275;SDS011;51875;49.994;14.052;2023-06-10T00:16:30;11.60;;;8.57;;
65275;SDS011;51875;49.994;14.052;2023-06-10T00:17:46;11.70;;;8.25;;
65275;SDS011;51875;49.994;14.052;2023-06-10T00:19:02;13.52;;;8.77;;
65275;SDS011;51875;49.994;14.052;2023-06-10T00:20:18;12.50;;;9.00;;
65275;SDS011;51875;49.994;14.052;2023-06-10T00:21:39;10.40;;;7.68;;
65275;SDS011;51875;49.994;14.052;2023-06-10T00:22:55;15.52;;;9.13;;
65275;SDS011;51875;49.994;14.052;2023-06-10T00:24:12;11.75;;;8.63;;
65275;SDS011;51875;49.994;14.052;2023-06-10T00:25:27;11.57;;;8.32;;
65275;SDS011;51875;49.994;14.052;2023-06-10T00:26:43;9.77;;;7.45;;
65275;SDS011;51875;49.994;14.052;2023-06-10T00:27:59;10.98;;;7.90;;
65275;SDS011;51875;49.994;14.052;2023-06-10T00:29:14;12.23;;;8.43;;
65275;SDS011;51875;49.994;14.052;2023-06-10T00:30:30;11.63;;;7.60;;
65275;SDS011;51875;49.994;14.052;2023-06-10T00:31:46;11.68;;;7.97;;
65275;SDS011;51875;49.994;14.052;2023-06-10T00:33:02;11.77;;;8.20;;
65275;SDS011;51875;49.994;14.052;2023-06-10T00:34:17;10.75;;;7.80;;
65275;SDS011;51875;49.994;14.052;2023-06-10T00:35:33;13.38;;;8.38;;
65275;SDS011;51875;49.994;14.052;2023-06-10T00:36:48;9.90;;;7.90;;
65275;SDS011;51875;49.994;14.052;2023-06-10T00:38:04;10.10;;;7.88;;
65275;SDS011;51875;49.994;14.052;2023-06-10T00:39:19;11.07;;;8.10;;
65275;SDS011;51875;49.994;14.052;2023-06-10T00:40:41;12.82;;;8.48;;
65275;SDS011;51875;49.994;14.052;2023-06-10T00:41:56;11.85;;;8.00;;
65275;SDS011;51875;49.994;14.052;2023-06-10T00:43:12;11.45;;;8.43;;
65275;SDS011;51875;49.994;14.052;2023-06-10T00:44:27;11.05;;;8.07;;
65275;SDS011;51875;49.994;14.052;2023-06-10T00:45:43;12.00;;;8.13;;
65275;SDS011;51875;49.994;14.052;2023-06-10T00:46:59;13.00;;;8.80;;
65275;SDS011;51875;49.994;14.052;2023-06-10T00:48:14;12.38;;;8.57;;
65275;SDS011;51875;49.994;14.052;2023-06-10T00:49:30;13.48;;;8.70;;
65275;SDS011;51875;49.994;14.052;2023-06-10T00:50:46;12.52;;;8.60;;
65275;SDS011;51875;49.994;14.052;2023-06-10T00:52:03;11.93;;;8.48;;
65275;SDS011;51875;49.994;14.052;2023-06-10T00:53:19;13.10;;;8.20;;
65275;SDS011;51875;49.994;14.052;2023-06-10T00:54:39;11.98;;;8.38;;
65275;SDS011;51875;49.994;14.052;2023-06-10T00:55:55;12.15;;;8.77;;
65275;SDS011;51875;49.994;14.052;2023-06-10T00:57:11;12.77;;;8.38;;
65275;SDS011;51875;49.994;14.052;2023-06-10T00:58:29;11.98;;;8.55;;
65275;SDS011;51875;49.994;14.052;2023-06-10T00:59:47;13.98;;;9.25;;
65275;SDS011;51875;49.994;14.052;2023-06-10T01:01:03;13.13;;;8.40;;
65275;SDS011;51875;49.994;14.052;2023-06-10T01:02:22;12.15;;;8.52;;
65275;SDS011;51875;49.994;14.052;2023-06-10T01:03:38;11.82;;;8.05;;
65275;SDS011;51875;49.994;14.052;2023-06-10T01:04:54;12.48;;;8.00;;
65275;SDS011;51875;49.994;14.052;2023-06-10T01:07:56;14.55;;;8.55;;
65275;SDS011;51875;49.994;14.052;2023-06-10T01:09:32;11.60;;;8.48;;
65275;SDS011;51875;49.994;14.052;2023-06-10T01:10:53;14.20;;;8.70;;
65275;SDS011;51875;49.994;14.052;2023-06-10T01:12:17;11.52;;;8.45;;
65275;SDS011;51875;49.994;14.052;2023-06-10T01:13:39;11.77;;;8.50;;
65275;SDS011;51875;49.994;14.052;2023-06-10T01:14:57;11.57;;;7.88;;
65275;SDS011;51875;49.994;14.052;2023-06-10T01:16:14;11.43;;;8.15;;
65275;SDS011;51875;49.994;14.052;2023-06-10T01:17:30;12.70;;;7.90;;
65275;SDS011;51875;49.994;14.052;2023-06-10T01:18:45;12.02;;;7.90;;
65275;SDS011;51875;49.994;14.052;2023-06-10T01:20:01;11.15;;;7.93;;
65275;SDS011;51875;49.994;14.052;2023-06-10T01:21:22;11.63;;;8.13;;
65275;SDS011;51875;49.994;14.052;2023-06-10T01:22:41;11.50;;;8.30;;
65275;SDS011;51875;49.994;14.052;2023-06-10T01:23:57;12.95;;;8.23;;
65275;SDS011;51875;49.994;14.052;2023-06-10T01:25:13;13.70;;;8.20;;
65275;SDS011;51875;49.994;14.052;2023-06-10T01:26:30;11.88;;;8.25;;
65275;SDS011;51875;49.994;14.052;2023-06-10T01:27:48;11.88;;;8.20;;
65275;SDS011;51875;49.994;14.052;2023-06-10T01:29:14;11.27;;;8.15;;
65275;SDS011;51875;49.994;14.052;2023-06-10T01:30:45;12.05;;;8.18;;
65275;SDS011;51875;49.994;14.052;2023-06-10T01:32:13;13.23;;;8.02;;
65275;SDS011;51875;49.994;14.052;2023-06-10T01:33:30;10.88;;;8.13;;
65275;SDS011;51875;49.994;14.052;2023-06-10T01:34:48;11.85;;;7.78;;
65275;SDS011;51875;49.994;14.052;2023-06-10T01:36:05;12.98;;;8.35;;
65275;SDS011;51875;49.994;14.052;2023-06-10T01:37:21;13.30;;;8.70;;
65275;SDS011;51875;49.994;14.052;2023-06-10T01:38:45;10.25;;;8.00;;
65275;SDS011;51875;49.994;14.052;2023-06-10T01:40:02;13.65;;;8.27;;
65275;SDS011;51875;49.994;14.052;2023-06-10T01:41:21;10.38;;;8.02;;
65275;SDS011;51875;49.994;14.052;2023-06-10T01:42:38;12.95;;;8.15;;
65275;SDS011;51875;49.994;14.052;2023-06-10T01:43:54;11.48;;;8.35;;
65275;SDS011;51875;49.994;14.052;2023-06-10T01:45:09;10.98;;;8.15;;
65275;SDS011;51875;49.994;14.052;2023-06-10T01:46:25;11.60;;;7.63;;
65275;SDS011;51875;49.994;14.052;2023-06-10T01:47:40;11.93;;;8.05;;
65275;SDS011;51875;49.994;14.052;2023-06-10T01:48:56;11.35;;;7.47;;
65275;SDS011;51875;49.994;14.052;2023-06-10T01:50:12;11.75;;;7.95;;
65275;SDS011;51875;49.994;14.052;2023-06-10T01:51:34;12.15;;;7.32;;
65275;SDS011;51875;49.994;14.052;2023-06-10T01:52:51;13.90;;;8.65;;
65275;SDS011;51875;49.994;14.052;2023-06-10T01:54:06;12.85;;;8.57;;
65275;SDS011;51875;49.994;14.052;2023-06-10T01:55:22;13.10;;;8.95;;
65275;SDS011;51875;49.994;14.052;2023-06-10T01:56:38;12.75;;;8.90;;
65275;SDS011;51875;49.994;14.052;2023-06-10T01:57:53;14.65;;;8.40;;
65275;SDS011;51875;49.994;14.052;2023-06-10T01:59:09;13.30;;;9.45;;
65275;SDS011;51875;49.994;14.052;2023-06-10T02:00:24;21.75;;;9.57;;
65275;SDS011;51875;49.994;14.052;2023-06-10T02:01:40;17.63;;;8.88;;
65275;SDS011;51875;49.994;14.052;2023-06-10T02:02:56;17.50;;;9.90;;
65275;SDS011;51875;49.994;14.052;2023-06-10T02:04:11;15.13;;;9.15;;
65275;SDS011;51875;49.994;14.052;2023-06-10T02:05:27;13.68;;;8.43;;
65275;SDS011;51875;49.994;14.052;2023-06-10T02:06:42;14.30;;;9.02;;
65275;SDS011;51875;49.994;14.052;2023-06-10T02:07:58;42.80;;;10.45;;
65275;SDS011;51875;49.994;14.052;2023-06-10T02:09:13;19.80;;;10.18;;
65275;SDS011;51875;49.994;14.052;2023-06-10T02:10:29;16.95;;;9.80;;
65275;SDS011;51875;49.994;14.052;2023-06-10T02:11:44;32.00;;;10.82;;
65275;SDS011;51875;49.994;14.052;2023-06-10T02:13:00;23.00;;;9.98;;
65275;SDS011;51875;49.994;14.052;2023-06-10T02:14:16;17.17;;;9.95;;
65275;SDS011;51875;49.994;14.052;2023-06-10T02:15:31;16.27;;;10.77;;
65275;SDS011;51875;49.994;14.052;2023-06-10T02:16:47;21.35;;;10.07;;
65275;SDS011;51875;49.994;14.052;2023-06-10T02:18:02;16.48;;;9.57;;
65275;SDS011;51875;49.994;14.052;2023-06-10T02:19:18;23.73;;;9.95;;
65275;SDS011;51875;49.994;14.052;2023-06-10T02:20:37;13.73;;;9.30;;
65275;SDS011;51875;49.994;14.052;2023-06-10T02:21:55;21.75;;;9.27;;
65275;SDS011;51875;49.994;14.052;2023-06-10T02:23:10;22.88;;;9.70;;
65275;SDS011;51875;49.994;14.052;2023-06-10T02:24:26;13.60;;;9.50;;
65275;SDS011;51875;49.994;14.052;2023-06-10T02:25:42;13.88;;;9.52;;
65275;SDS011;51875;49.994;14.052;2023-06-10T02:26:57;15.07;;;9.57;;
65275;SDS011;51875;49.994;14.052;2023-06-10T02:28:15;16.55;;;8.73;;
65275;SDS011;51875;49.994;14.052;2023-06-10T02:29:31;19.98;;;9.77;;
65275;SDS011;51875;49.994;14.052;2023-06-10T02:30:46;18.23;;;10.25;;
65275;SDS011;51875;49.994;14.052;2023-06-10T02:32:02;16.58;;;9.32;;
65275;SDS011;51875;49.994;14.052;2023-06-10T02:33:18;14.80;;;9.20;;
65275;SDS011;51875;49.994;14.052;2023-06-10T02:34:34;23.45;;;10.38;;
65275;SDS011;51875;49.994;14.052;2023-06-10T02:35:51;25.10;;;10.02;;
65275;SDS011;51875;49.994;14.052;2023-06-10T02:37:07;24.02;;;11.07;;
65275;SDS011;51875;49.994;14.052;2023-06-10T02:38:22;32.75;;;10.85;;
65275;SDS011;51875;49.994;14.052;2023-06-10T02:39:38;29.50;;;11.68;;
65275;SDS011;51875;49.994;14.052;2023-06-10T02:40:54;31.10;;;10.93;;
65275;SDS011;51875;49.994;14.052;2023-06-10T02:42:09;32.83;;;10.35;;
65275;SDS011;51875;49.994;14.052;2023-06-10T02:43:25;22.48;;;10.77;;
65275;SDS011;51875;49.994;14.052;2023-06-10T02:44:41;41.13;;;11.45;;
65275;SDS011;51875;49.994;14.052;2023-06-10T02:45:56;34.20;;;10.57;;
65275;SDS011;51875;49.994;14.052;2023-06-10T02:47:12;32.45;;;10.57;;
65275;SDS011;51875;49.994;14.052;2023-06-10T02:48:28;62.40;;;12.00;;
65275;SDS011;51875;49.994;14.052;2023-06-10T02:49:43;71.28;;;11.85;;
65275;SDS011;51875;49.994;14.052;2023-06-10T02:50:59;41.97;;;11.00;;
65275;SDS011;51875;49.994;14.052;2023-06-10T02:52:15;46.30;;;10.75;;
65275;SDS011;51875;49.994;14.052;2023-06-10T02:53:30;70.53;;;12.70;;
65275;SDS011;51875;49.994;14.052;2023-06-10T02:54:46;85.00;;;12.07;;
65275;SDS011;51875;49.994;14.052;2023-06-10T02:56:02;37.85;;;9.88;;
65275;SDS011;51875;49.994;14.052;2023-06-10T02:57:17;36.20;;;8.45;;
65275;SDS011;51875;49.994;14.052;2023-06-10T02:58:33;57.25;;;8.93;;
65275;SDS011;51875;49.994;14.052;2023-06-10T02:59:48;42.10;;;8.43;;
65275;SDS011;51875;49.994;14.052;2023-06-10T03:01:04;72.80;;;9.77;;
65275;SDS011;51875;49.994;14.052;2023-06-10T03:02:20;27.67;;;7.57;;
65275;SDS011;51875;49.994;14.052;2023-06-10T03:03:35;39.47;;;6.82;;
65275;SDS011;51875;49.994;14.052;2023-06-10T03:04:55;73.30;;;9.68;;
65275;SDS011;51875;49.994;14.052;2023-06-10T03:06:11;73.75;;;9.20;;
65275;SDS011;51875;49.994;14.052;2023-06-10T03:07:27;60.42;;;9.10;;
65275;SDS011;51875;49.994;14.052;2023-06-10T03:08:43;69.03;;;9.13;;
65275;SDS011;51875;49.994;14.052;2023-06-10T03:09:59;33.10;;;8.13;;
65275;SDS011;51875;49.994;14.052;2023-06-10T03:11:14;76.82;;;9.68;;
65275;SDS011;51875;49.994;14.052;2023-06-10T03:12:30;28.42;;;7.63;;
65275;SDS011;51875;49.994;14.052;2023-06-10T03:13:46;73.50;;;9.93;;
65275;SDS011;51875;49.994;14.052;2023-06-10T03:15:01;61.30;;;9.50;;
65275;SDS011;51875;49.994;14.052;2023-06-10T03:16:19;57.50;;;9.68;;
65275;SDS011;51875;49.994;14.052;2023-06-10T03:17:35;65.35;;;10.32;;
65275;SDS011;51875;49.994;14.052;2023-06-10T03:18:50;88.97;;;11.60;;
65275;SDS011;51875;49.994;14.052;2023-06-10T03:20:06;96.85;;;10.45;;
65275;SDS011;51875;49.994;14.052;2023-06-10T03:21:25;69.47;;;7.88;;
65275;SDS011;51875;49.994;14.052;2023-06-10T03:22:42;116.53;;;8.52;;
65275;SDS011;51875;49.994;14.052;2023-06-10T03:23:57;335.98;;;17.70;;
65275;SDS011;51875;49.994;14.052;2023-06-10T03:25:13;184.35;;;11.27;;
65275;SDS011;51875;49.994;14.052;2023-06-10T03:26:29;252.38;;;14.82;;
65275;SDS011;51875;49.994;14.052;2023-06-10T03:27:45;389.58;;;19.98;;
65275;SDS011;51875;49.994;14.052;2023-06-10T03:29:00;196.50;;;10.85;;
65275;SDS011;51875;49.994;14.052;2023-06-10T03:30:16;129.50;;;8.35;;
65275;SDS011;51875;49.994;14.052;2023-06-10T03:31:32;154.45;;;10.57;;
65275;SDS011;51875;49.994;14.052;2023-06-10T03:32:47;96.80;;;10.00;;
65275;SDS011;51875;49.994;14.052;2023-06-10T03:34:04;146.85;;;10.00;;
65275;SDS011;51875;49.994;14.052;2023-06-10T03:35:20;52.38;;;8.25;;
65275;SDS011;51875;49.994;14.052;2023-06-10T03:36:35;20.98;;;7.55;;
65275;SDS011;51875;49.994;14.052;2023-06-10T03:37:52;13.57;;;7.72;;
65275;SDS011;51875;49.994;14.052;2023-06-10T03:39:08;12.80;;;7.05;;
65275;SDS011;51875;49.994;14.052;2023-06-10T03:40:24;12.52;;;6.78;;
65275;SDS011;51875;49.994;14.052;2023-06-10T03:41:40;28.40;;;8.10;;
65275;SDS011;51875;49.994;14.052;2023-06-10T03:42:55;29.05;;;8.40;;
65275;SDS011;51875;49.994;14.052;2023-06-10T03:44:11;33.25;;;9.02;;
65275;SDS011;51875;49.994;14.052;2023-06-10T03:45:26;68.57;;;9.70;;
65275;SDS011;51875;49.994;14.052;2023-06-10T03:46:43;49.08;;;8.98;;
65275;SDS011;51875;49.994;14.052;2023-06-10T03:47:58;67.55;;;9.30;;
65275;SDS011;51875;49.994;14.052;2023-06-10T03:49:15;79.20;;;9.70;;
65275;SDS011;51875;49.994;14.052;2023-06-10T03:50:31;62.00;;;8.85;;
65275;SDS011;51875;49.994;14.052;2023-06-10T03:51:46;85.75;;;10.10;;
65275;SDS011;51875;49.994;14.052;2023-06-10T03:53:02;167.68;;;12.88;;
65275;SDS011;51875;49.994;14.052;2023-06-10T03:54:18;192.63;;;14.70;;
65275;SDS011;51875;49.994;14.052;2023-06-10T03:55:33;149.65;;;11.65;;
65275;SDS011;51875;49.994;14.052;2023-06-10T03:56:49;140.07;;;13.30;;
65275;SDS011;51875;49.994;14.052;2023-06-10T03:58:05;135.32;;;10.68;;
65275;SDS011;51875;49.994;14.052;2023-06-10T03:59:21;95.32;;;10.57;;
65275;SDS011;51875;49.994;14.052;2023-06-10T04:00:36;121.18;;;11.02;;
65275;SDS011;51875;49.994;14.052;2023-06-10T04:01:56;110.55;;;10.73;;
65275;SDS011;51875;49.994;14.052;2023-06-10T04:03:12;101.18;;;10.63;;
65275;SDS011;51875;49.994;14.052;2023-06-10T04:04:30;257.13;;;17.05;;
65275;SDS011;51875;49.994;14.052;2023-06-10T04:05:46;160.88;;;11.82;;
65275;SDS011;51875;49.994;14.052;2023-06-10T04:07:02;124.75;;;11.63;;
65275;SDS011;51875;49.994;14.052;2023-06-10T04:08:17;210.75;;;16.60;;
65275;SDS011;51875;49.994;14.052;2023-06-10T04:09:34;184.90;;;12.70;;
65275;SDS011;51875;49.994;14.052;2023-06-10T04:10:51;162.85;;;12.18;;
65275;SDS011;51875;49.994;14.052;2023-06-10T04:12:06;149.00;;;13.48;;
65275;SDS011;51875;49.994;14.052;2023-06-10T04:13:24;99.85;;;9.60;;
65275;SDS011;51875;49.994;14.052;2023-06-10T04:14:39;180.13;;;14.10;;
65275;SDS011;51875;49.994;14.052;2023-06-10T04:15:55;185.93;;;13.85;;
65275;SDS011;51875;49.994;14.052;2023-06-10T04:17:10;300.05;;;20.33;;
65275;SDS011;51875;49.994;14.052;2023-06-10T04:18:26;252.27;;;20.42;;
65275;SDS011;51875;49.994;14.052;2023-06-10T04:19:42;194.45;;;15.63;;
65275;SDS011;51875;49.994;14.052;2023-06-10T04:20:57;232.90;;;14.90;;
65275;SDS011;51875;49.994;14.052;2023-06-10T04:22:13;269.48;;;17.83;;
65275;SDS011;51875;49.994;14.052;2023-06-10T04:23:29;218.35;;;14.68;;
65275;SDS011;51875;49.994;14.052;2023-06-10T04:24:44;173.20;;;12.57;;
65275;SDS011;51875;49.994;14.052;2023-06-10T04:26:00;132.25;;;11.20;;
65275;SDS011;51875;49.994;14.052;2023-06-10T04:27:16;78.15;;;9.15;;
65275;SDS011;51875;49.994;14.052;2023-06-10T04:28:31;119.70;;;11.57;;
65275;SDS011;51875;49.994;14.052;2023-06-10T04:29:47;77.90;;;10.05;;
65275;SDS011;51875;49.994;14.052;2023-06-10T04:31:02;53.75;;;9.50;;
65275;SDS011;51875;49.994;14.052;2023-06-10T04:32:19;78.97;;;9.13;;
65275;SDS011;51875;49.994;14.052;2023-06-10T04:33:35;75.35;;;9.15;;
65275;SDS011;51875;49.994;14.052;2023-06-10T04:34:50;57.08;;;9.60;;
65275;SDS011;51875;49.994;14.052;2023-06-10T04:36:06;23.42;;;8.23;;
65275;SDS011;51875;49.994;14.052;2023-06-10T04:37:22;35.03;;;8.23;;
65275;SDS011;51875;49.994;14.052;2023-06-10T04:38:37;30.08;;;8.23;;
65275;SDS011;51875;49.994;14.052;2023-06-10T04:39:53;28.02;;;8.43;;
65275;SDS011;51875;49.994;14.052;2023-06-10T04:41:09;49.58;;;9.85;;
65275;SDS011;51875;49.994;14.052;2023-06-10T04:42:24;39.83;;;9.95;;
65275;SDS011;51875;49.994;14.052;2023-06-10T04:43:40;84.22;;;10.27;;
65275;SDS011;51875;49.994;14.052;2023-06-10T04:44:55;30.13;;;8.38;;
65275;SDS011;51875;49.994;14.052;2023-06-10T04:46:11;20.30;;;8.68;;
65275;SDS011;51875;49.994;14.052;2023-06-10T04:47:28;13.20;;;8.07;;
65275;SDS011;51875;49.994;14.052;2023-06-10T04:48:44;45.45;;;9.05;;
65275;SDS011;51875;49.994;14.052;2023-06-10T04:50:02;118.13;;;12.02;;
65275;SDS011;51875;49.994;14.052;2023-06-10T04:51:19;59.65;;;9.05;;
65275;SDS011;51875;49.994;14.052;2023-06-10T04:52:34;29.90;;;9.15;;
65275;SDS011;51875;49.994;14.052;2023-06-10T04:53:50;30.15;;;9.30;;
65275;SDS011;51875;49.994;14.052;2023-06-10T04:55:06;28.00;;;9.40;;
65275;SDS011;51875;49.994;14.052;2023-06-10T04:56:21;17.30;;;8.52;;
65275;SDS011;51875;49.994;14.052;2023-06-10T04:57:40;39.28;;;8.73;;
65275;SDS011;51875;49.994;14.052;2023-06-10T04:58:56;13.60;;;6.97;;
65275;SDS011;51875;49.994;14.052;2023-06-10T05:00:13;38.83;;;7.30;;
65275;SDS011;51875;49.994;14.052;2023-06-10T05:01:29;44.25;;;9.35;;
65275;SDS011;51875;49.994;14.052;2023-06-10T05:02:45;30.63;;;9.32;;
65275;SDS011;51875;49.994;14.052;2023-06-10T05:04:04;51.45;;;9.50;;
65275;SDS011;51875;49.994;14.052;2023-06-10T05:05:20;68.57;;;10.18;;
65275;SDS011;51875;49.994;14.052;2023-06-10T05:06:35;66.75;;;9.77;;
65275;SDS011;51875;49.994;14.052;2023-06-10T05:07:51;49.53;;;8.13;;
65275;SDS011;51875;49.994;14.052;2023-06-10T05:09:07;15.32;;;7.93;;
65275;SDS011;51875;49.994;14.052;2023-06-10T05:10:22;31.13;;;8.05;;
65275;SDS011;51875;49.994;14.052;2023-06-10T05:11:38;29.25;;;8.20;;
65275;SDS011;51875;49.994;14.052;2023-06-10T05:12:54;48.63;;;9.23;;
65275;SDS011;51875;49.994;14.052;2023-06-10T05:14:09;39.95;;;9.25;;
65275;SDS011;51875;49.994;14.052;2023-06-10T05:15:25;38.28;;;7.85;;
65275;SDS011;51875;49.994;14.052;2023-06-10T05:16:41;43.08;;;10.00;;
65275;SDS011;51875;49.994;14.052;2023-06-10T05:17:58;37.80;;;8.10;;
65275;SDS011;51875;49.994;14.052;2023-06-10T05:19:13;26.45;;;7.32;;
65275;SDS011;51875;49.994;14.052;2023-06-10T05:20:31;48.60;;;8.88;;
65275;SDS011;51875;49.994;14.052;2023-06-10T05:21:46;52.90;;;9.52;;
65275;SDS011;51875;49.994;14.052;2023-06-10T05:23:03;57.10;;;8.93;;
65275;SDS011;51875;49.994;14.052;2023-06-10T05:24:18;62.90;;;9.50;;
65275;SDS011;51875;49.994;14.052;2023-06-10T05:25:34;17.15;;;9.05;;
65275;SDS011;51875;49.994;14.052;2023-06-10T05:26:50;21.42;;;9.13;;
65275;SDS011;51875;49.994;14.052;2023-06-10T05:28:05;12.80;;;8.95;;
65275;SDS011;51875;49.994;14.052;2023-06-10T05:29:24;11.80;;;8.07;;
65275;SDS011;51875;49.994;14.052;2023-06-10T05:30:40;17.08;;;8.73;;
65275;SDS011;51875;49.994;14.052;2023-06-10T05:31:56;22.13;;;9.73;;
65275;SDS011;51875;49.994;14.052;2023-06-10T05:33:12;16.10;;;9.32;;
65275;SDS011;51875;49.994;14.052;2023-06-10T05:34:29;12.20;;;8.70;;
65275;SDS011;51875;49.994;14.052;2023-06-10T05:35:45;11.38;;;8.93;;
65275;SDS011;51875;49.994;14.052;2023-06-10T05:37:00;13.38;;;9.50;;
65275;SDS011;51875;49.994;14.052;2023-06-10T05:38:16;12.77;;;9.40;;
65275;SDS011;51875;49.994;14.052;2023-06-10T05:39:32;12.45;;;8.70;;
65275;SDS011;51875;49.994;14.052;2023-06-10T05:40:47;11.52;;;8.65;;
65275;SDS011;51875;49.994;14.052;2023-06-10T05:42:04;13.00;;;9.10;;
65275;SDS011;51875;49.994;14.052;2023-06-10T05:43:22;11.80;;;8.85;;
65275;SDS011;51875;49.994;14.052;2023-06-10T05:44:37;18.77;;;9.60;;
65275;SDS011;51875;49.994;14.052;2023-06-10T05:45:53;16.60;;;9.82;;
65275;SDS011;51875;49.994;14.052;2023-06-10T05:47:08;33.75;;;10.80;;
65275;SDS011;51875;49.994;14.052;2023-06-10T05:48:24;17.63;;;9.77;;
65275;SDS011;51875;49.994;14.052;2023-06-10T05:49:39;14.55;;;9.68;;
65275;SDS011;51875;49.994;14.052;2023-06-10T05:50:55;15.90;;;8.75;;
65275;SDS011;51875;49.994;14.052;2023-06-10T05:52:11;18.50;;;9.52;;
65275;SDS011;51875;49.994;14.052;2023-06-10T05:53:26;14.85;;;8.95;;
65275;SDS011;51875;49.994;14.052;2023-06-10T05:54:42;13.77;;;9.68;;
65275;SDS011;51875;49.994;14.052;2023-06-10T05:55:57;12.43;;;8.90;;
65275;SDS011;51875;49.994;14.052;2023-06-10T05:57:13;12.57;;;9.07;;
65275;SDS011;51875;49.994;14.052;2023-06-10T05:58:31;12.30;;;8.50;;
65275;SDS011;51875;49.994;14.052;2023-06-10T05:59:47;12.60;;;9.13;;
65275;SDS011;51875;49.994;14.052;2023-06-10T06:01:02;12.25;;;9.02;;
65275;SDS011;51875;49.994;14.052;2023-06-10T06:02:18;12.48;;;9.20;;
65275;SDS011;51875;49.994;14.052;2023-06-10T06:03:34;12.70;;;9.02;;
65275;SDS011;51875;49.994;14.052;2023-06-10T06:04:49;12.15;;;9.40;;
65275;SDS011;51875;49.994;14.052;2023-06-10T06:06:05;12.30;;;9.13;;
65275;SDS011;51875;49.994;14.052;2023-06-10T06:07:20;14.02;;;9.82;;
65275;SDS011;51875;49.994;14.052;2023-06-10T06:08:36;13.10;;;9.80;;
65275;SDS011;51875;49.994;14.052;2023-06-10T06:09:52;14.60;;;9.38;;
65275;SDS011;51875;49.994;14.052;2023-06-10T06:11:07;12.88;;;9.15;;
65275;SDS011;51875;49.994;14.052;2023-06-10T06:12:23;12.50;;;9.25;;
65275;SDS011;51875;49.994;14.052;2023-06-10T06:13:38;14.45;;;9.32;;
65275;SDS011;51875;49.994;14.052;2023-06-10T06:14:54;11.35;;;8.90;;
65275;SDS011;51875;49.994;14.052;2023-06-10T06:16:10;12.40;;;8.80;;
65275;SDS011;51875;49.994;14.052;2023-06-10T06:17:25;11.38;;;8.70;;
65275;SDS011;51875;49.994;14.052;2023-06-10T06:18:41;10.55;;;8.20;;
65275;SDS011;51875;49.994;14.052;2023-06-10T06:19:56;11.70;;;8.75;;
65275;SDS011;51875;49.994;14.052;2023-06-10T06:21:12;10.70;;;8.10;;
65275;SDS011;51875;49.994;14.052;2023-06-10T06:22:27;10.27;;;8.10;;
65275;SDS011;51875;49.994;14.052;2023-06-10T06:23:43;12.27;;;8.55;;
65275;SDS011;51875;49.994;14.052;2023-06-10T06:24:59;11.45;;;8.48;;
65275;SDS011;51875;49.994;14.052;2023-06-10T06:26:14;10.25;;;8.30;;
65275;SDS011;51875;49.994;14.052;2023-06-10T06:27:30;11.32;;;8.20;;
65275;SDS011;51875;49.994;14.052;2023-06-10T06:28:46;12.20;;;8.63;;
65275;SDS011;51875;49.994;14.052;2023-06-10T06:30:04;11.23;;;8.88;;
65275;SDS011;51875;49.994;14.052;2023-06-10T06:31:30;11.80;;;9.60;;
65275;SDS011;51875;49.994;14.052;2023-06-10T06:32:50;11.68;;;9.38;;
65275;SDS011;51875;49.994;14.052;2023-06-10T06:34:19;11.63;;;8.82;;
65275;SDS011;51875;49.994;14.052;2023-06-10T06:35:49;13.40;;;8.52;;
65275;SDS011;51875;49.994;14.052;2023-06-10T06:37:10;12.13;;;8.55;;
65275;SDS011;51875;49.994;14.052;2023-06-10T06:38:36;12.30;;;9.02;;
65275;SDS011;51875;49.994;14.052;2023-06-10T06:39:52;10.25;;;7.97;;
65275;SDS011;51875;49.994;14.052;2023-06-10T06:41:09;10.73;;;8.35;;
65275;SDS011;51875;49.994;14.052;2023-06-10T06:42:38;9.82;;;7.90;;
65275;SDS011;51875;49.994;14.052;2023-06-10T06:43:54;12.13;;;8.48;;
65275;SDS011;51875;49.994;14.052;2023-06-10T06:45:10;11.25;;;8.52;;
65275;SDS011;51875;49.994;14.052;2023-06-10T06:46:27;10.68;;;7.65;;
65275;SDS011;51875;49.994;14.052;2023-06-10T06:47:43;8.80;;;7.45;;
65275;SDS011;51875;49.994;14.052;2023-06-10T06:48:59;10.70;;;7.03;;
65275;SDS011;51875;49.994;14.052;2023-06-10T06:50:14;10.02;;;7.50;;
65275;SDS011;51875;49.994;14.052;2023-06-10T06:51:30;9.18;;;7.35;;
65275;SDS011;51875;49.994;14.052;2023-06-10T06:52:46;8.77;;;7.22;;
65275;SDS011;51875;49.994;14.052;2023-06-10T06:54:02;8.43;;;7.05;;
65275;SDS011;51875;49.994;14.052;2023-06-10T06:55:17;8.82;;;7.63;;
65275;SDS011;51875;49.994;14.052;2023-06-10T06:56:33;9.73;;;7.32;;
65275;SDS011;51875;49.994;14.052;2023-06-10T06:57:49;8.25;;;6.15;;
65275;SDS011;51875;49.994;14.052;2023-06-10T06:59:04;9.55;;;7.20;;
65275;SDS011;51875;49.994;14.052;2023-06-10T07:00:20;8.00;;;6.68;;
65275;SDS011;51875;49.994;14.052;2023-06-10T07:01:36;8.50;;;6.85;;
65275;SDS011;51875;49.994;14.052;2023-06-10T07:02:51;9.02;;;6.88;;
65275;SDS011;51875;49.994;14.052;2023-06-10T07:04:07;7.63;;;6.13;;
65275;SDS011;51875;49.994;14.052;2023-06-10T07:05:23;8.32;;;6.05;;
65275;SDS011;51875;49.994;14.052;2023-06-10T07:06:41;7.60;;;5.97;;
65275;SDS011;51875;49.994;14.052;2023-06-10T07:07:57;7.07;;;5.35;;
65275;SDS011;51875;49.994;14.052;2023-06-10T07:09:13;7.30;;;5.15;;
65275;SDS011;51875;49.994;14.052;2023-06-10T07:10:28;6.90;;;5.38;;
65275;SDS011;51875;49.994;14.052;2023-06-10T07:11:44;6.20;;;4.82;;
65275;SDS011;51875;49.994;14.052;2023-06-10T07:12:59;5.05;;;4.55;;
65275;SDS011;51875;49.994;14.052;2023-06-10T07:14:15;6.43;;;5.80;;
65275;SDS011;51875;49.994;14.052;2023-06-10T07:15:31;6.40;;;5.70;;
65275;SDS011;51875;49.994;14.052;2023-06-10T07:16:48;7.65;;;5.70;;
65275;SDS011;51875;49.994;14.052;2023-06-10T07:18:05;7.53;;;5.78;;
65275;SDS011;51875;49.994;14.052;2023-06-10T07:19:22;6.43;;;5.70;;
65275;SDS011;51875;49.994;14.052;2023-06-10T07:20:37;8.05;;;5.60;;
65275;SDS011;51875;49.994;14.052;2023-06-10T07:21:53;5.72;;;5.22;;
65275;SDS011;51875;49.994;14.052;2023-06-10T07:23:09;6.00;;;5.30;;
65275;SDS011;51875;49.994;14.052;2023-06-10T07:24:24;7.22;;;4.80;;
65275;SDS011;51875;49.994;14.052;2023-06-10T07:25:41;5.28;;;4.78;;
65275;SDS011;51875;49.994;14.052;2023-06-10T07:26:57;5.30;;;4.57;;